Time;durP1;ratioP1;P1;durP2;ratioP2;P2;SDS_P1;SDS_P2;PMS_P1;PMS_P2;Temp;Humidity;BMP_temperature;BMP_pressure;BME280_temperature;BME280_humidity;BME280_pressure;Samples;Min_cycle;Max_cycle;Signal;HPM_P1;HPM_P2
2021/10/11 00:01:35;;;;;;;28.00;18.48;;;;;;;6.94;62.11;101011.16;1696139;83;21069;-70
2021/10/11 00:04:01;;;;;;;30.82;20.37;;;;;;;6.90;62.28;101008.56;1690693;84;21942;-70
2021/10/11 00:06:27;;;;;;;26.80;18.17;;;;;;;6.82;62.50;100998.48;1718789;82;20933;-71
2021/10/11 00:08:55;;;;;;;30.90;19.90;;;;;;;6.76;62.66;101005.97;1724833;81;20996;-70
2021/10/11 00:11:22;;;;;;;27.52;17.07;;;;;;;6.69;62.87;101000.55;1658628;85;21025;-70
2021/10/11 00:13:48;;;;;;;27.32;18.42;;;;;;;6.68;62.90;100995.38;1686975;83;20993;-71
2021/10/11 00:16:16;;;;;;;25.85;18.10;;;;;;;6.64;62.93;100994.13;1712569;83;21124;-71
2021/10/11 00:18:44;;;;;;;24.98;19.00;;;;;;;6.64;62.94;100992.28;1702307;83;21533;-71
2021/10/11 00:21:14;;;;;;;27.30;16.55;;;;;;;6.64;62.84;100995.45;1714887;82;21076;-71
2021/10/11 00:23:40;;;;;;;24.50;15.70;;;;;;;6.62;62.89;100984.15;1692758;83;21013;-74
2021/10/11 00:26:06;;;;;;;25.68;17.05;;;;;;;6.64;62.88;100992.78;1716173;83;21507;-71
2021/10/11 00:28:33;;;;;;;29.90;16.67;;;;;;;6.61;62.82;100981.98;1716056;83;21492;-70
2021/10/11 00:30:59;;;;;;;25.82;17.00;;;;;;;6.60;62.83;100982.16;1716191;82;21065;-69
2021/10/11 00:33:26;;;;;;;26.93;18.32;;;;;;;6.58;62.91;100979.67;1718834;82;21067;-80
2021/10/11 00:35:52;;;;;;;25.25;16.45;;;;;;;6.56;62.95;100972.37;1745553;82;21063;-70
2021/10/11 00:38:19;;;;;;;20.65;14.93;;;;;;;6.56;62.91;100973.20;1724449;82;21013;-70
2021/10/11 00:40:45;;;;;;;21.97;15.20;;;;;;;6.57;62.82;100970.83;1685016;83;21069;-72
2021/10/11 00:43:11;;;;;;;23.20;16.15;;;;;;;6.56;62.94;100969.20;1734543;82;20964;-73
2021/10/11 00:45:38;;;;;;;25.62;15.65;;;;;;;6.56;62.92;100967.03;1745056;82;21169;-75
2021/10/11 00:48:05;;;;;;;27.17;15.85;;;;;;;6.55;62.89;100968.04;1748946;81;21067;-72
2021/10/11 00:50:31;;;;;;;30.12;16.07;;;;;;;6.55;62.94;100968.87;1721128;82;21084;-71
2021/10/11 00:52:58;;;;;;;24.20;16.27;;;;;;;6.54;62.85;100963.20;1746650;82;21207;-71
2021/10/11 00:55:25;;;;;;;28.87;17.42;;;;;;;6.56;62.87;100957.67;1715481;83;20957;-72
2021/10/11 00:57:51;;;;;;;17.87;13.45;;;;;;;6.54;62.83;100957.02;1661295;85;20960;-72
2021/10/11 01:00:17;;;;;;;23.27;15.32;;;;;;;6.55;62.90;100966.70;1687545;83;21049;-70
2021/10/11 01:02:43;;;;;;;21.35;14.55;;;;;;;6.52;62.83;100958.55;1658328;85;21575;-79
2021/10/11 01:05:10;;;;;;;22.87;15.05;;;;;;;6.52;62.89;100961.22;1716585;82;21128;-70
2021/10/11 01:07:36;;;;;;;22.73;16.05;;;;;;;6.52;62.83;100955.08;1675749;83;21000;-73
2021/10/11 01:10:04;;;;;;;19.75;14.40;;;;;;;6.49;63.02;100961.61;1743962;82;20998;-74
2021/10/11 01:12:31;;;;;;;27.32;17.05;;;;;;;6.46;63.05;100956.66;1686390;83;21033;-72
2021/10/11 01:14:57;;;;;;;21.95;16.50;;;;;;;6.45;63.07;100952.84;1713400;82;20960;-71
2021/10/11 01:17:23;;;;;;;20.72;14.50;;;;;;;6.46;63.06;100951.83;1727863;82;21053;-72
2021/10/11 01:19:55;;;;;;;25.50;15.90;;;;;;;6.46;63.00;100951.83;1687228;83;20979;-71
2021/10/11 01:22:22;;;;;;;23.30;16.48;;;;;;;6.45;63.03;100952.33;1733059;82;21033;-73
2021/10/11 01:24:48;;;;;;;26.65;16.02;;;;;;;6.43;63.05;100949.01;1686612;83;21053;-72
2021/10/11 01:27:15;;;;;;;21.93;15.03;;;;;;;6.44;63.03;100944.49;1713820;82;21041;-71
2021/10/11 01:29:42;;;;;;;23.60;16.82;;;;;;;6.41;63.04;100945.72;1682406;83;21122;-72
2021/10/11 01:32:08;;;;;;;20.25;15.08;;;;;;;6.38;63.15;100936.73;1689577;84;21075;-71
2021/10/11 01:34:34;;;;;;;19.57;14.65;;;;;;;6.32;63.35;100933.52;1685093;83;21512;-72
2021/10/11 01:37:00;;;;;;;20.35;15.60;;;;;;;6.30;63.52;100927.52;1714863;82;21536;-71
2021/10/11 01:39:26;;;;;;;30.75;16.87;;;;;;;6.25;63.73;100925.93;1730283;83;21055;-73
2021/10/11 01:41:55;;;;;;;21.37;15.20;;;;;;;6.18;63.99;100923.72;1730259;83;22420;-72
2021/10/11 01:44:21;;;;;;;21.48;15.70;;;;;;;6.12;64.21;100925.30;1721047;83;21620;-74
2021/10/11 01:46:47;;;;;;;22.67;16.05;;;;;;;6.09;64.33;100919.53;1726514;83;21517;-74
2021/10/11 01:49:13;;;;;;;25.60;16.95;;;;;;;6.04;64.43;100924.61;1693524;83;21549;-72
2021/10/11 01:51:40;;;;;;;23.35;15.45;;;;;;;6.02;64.72;100925.30;1701157;83;21085;-72
2021/10/11 01:54:06;;;;;;;20.65;14.05;;;;;;;5.99;64.71;100924.34;1743639;82;21060;-72
2021/10/11 01:56:32;;;;;;;29.65;16.80;;;;;;;5.92;65.28;100920.27;1720468;82;21484;-75
2021/10/11 01:58:59;;;;;;;19.75;15.28;;;;;;;5.87;65.22;100925.34;1676548;83;21666;-73
2021/10/11 02:01:25;;;;;;;21.70;15.00;;;;;;;5.84;65.50;100918.19;1719347;83;21098;-71
2021/10/11 02:03:51;;;;;;;31.77;17.52;;;;;;;5.78;65.77;100920.27;1724499;83;21615;-72
2021/10/11 02:06:18;;;;;;;23.40;15.78;;;;;;;5.73;66.05;100918.67;1701770;83;21155;-72
2021/10/11 02:08:44;;;;;;;21.62;15.95;;;;;;;5.71;65.92;100914.34;1698250;83;21107;-72
2021/10/11 02:11:10;;;;;;;23.90;14.90;;;;;;;5.71;65.83;100911.68;1689009;83;20980;-70
2021/10/11 02:13:37;;;;;;;26.48;17.35;;;;;;;5.72;65.89;100905.83;1727866;83;20996;-70
2021/10/11 02:16:04;;;;;;;20.65;14.90;;;;;;;5.71;65.87;100905.00;1730123;82;21030;-70
2021/10/11 02:18:32;;;;;;;28.10;18.05;;;;;;;5.71;65.93;100905.00;1706635;83;21112;-70
2021/10/11 02:20:58;;;;;;;26.30;18.10;;;;;;;5.69;66.02;100903.55;1705398;83;21051;-70
2021/10/11 02:23:24;;;;;;;27.87;18.80;;;;;;;5.68;66.01;100899.23;1703090;83;21011;-73
2021/10/11 02:25:51;;;;;;;21.75;17.07;;;;;;;5.67;66.00;100902.40;1728894;83;20955;-72
2021/10/11 02:28:17;;;;;;;25.55;18.32;;;;;;;5.70;65.96;100898.03;1730315;82;21067;-71
2021/10/11 02:30:43;;;;;;;28.45;18.05;;;;;;;5.73;65.88;100898.66;1702709;83;21095;-71
2021/10/11 02:33:09;;;;;;;26.25;17.00;;;;;;;5.74;65.81;100899.81;1715985;83;20992;-71
2021/10/11 02:35:35;;;;;;;31.00;18.20;;;;;;;5.75;65.82;100896.13;1666704;84;21099;-73
2021/10/11 02:38:02;;;;;;;26.02;17.70;;;;;;;5.70;65.88;100887.36;1693478;83;21616;-69
2021/10/11 02:40:32;;;;;;;29.52;18.15;;;;;;;5.69;65.86;100888.88;1686074;83;21518;-71
2021/10/11 02:42:58;;;;;;;24.52;17.45;;;;;;;5.69;65.92;100883.03;1701016;83;20929;-69
2021/10/11 02:45:24;;;;;;;33.00;19.60;;;;;;;5.64;66.43;100884.61;1698716;83;20943;-70
2021/10/11 02:47:51;;;;;;;27.07;18.48;;;;;;;5.39;67.21;100868.60;1727121;83;20928;-70
2021/10/11 02:50:17;;;;;;;29.15;19.50;;;;;;;5.30;67.48;100869.22;1699773;83;21538;-70
2021/10/11 02:52:44;;;;;;;35.17;18.87;;;;;;;5.30;67.48;100869.22;1710024;83;21040;-70
2021/10/11 02:55:10;;;;;;;26.55;19.50;;;;;;;5.28;67.59;100869.91;1714368;83;21157;-70
2021/10/11 02:57:36;;;;;;;28.62;18.85;;;;;;;5.28;67.64;100862.73;1715839;82;21517;-68
2021/10/11 03:00:05;;;;;;;33.40;18.67;;;;;;;5.31;67.65;100862.05;1743704;82;21505;-71
2021/10/11 03:02:31;;;;;;;26.10;14.90;;;;;;;5.33;67.69;100858.17;1669982;84;21021;-70
2021/10/11 03:04:58;;;;;;;24.35;16.95;;;;;;;5.31;67.80;100856.72;1697324;83;20993;-70
2021/10/11 03:07:24;;;;;;;28.35;19.32;;;;;;;5.25;67.96;100859.63;1714328;83;21182;-72
2021/10/11 03:09:50;;;;;;;25.65;18.62;;;;;;;5.18;68.21;100860.86;1708663;83;20992;-69
2021/10/11 03:12:17;;;;;;;26.00;18.00;;;;;;;5.13;68.40;100856.59;1707294;83;20993;-69
2021/10/11 03:14:43;;;;;;;35.00;19.37;;;;;;;5.13;68.51;100858.45;1714285;83;21550;-69
2021/10/11 03:17:10;;;;;;;27.20;17.23;;;;;;;5.10;68.59;100857.47;1714220;83;22207;-68
2021/10/11 03:19:37;;;;;;;32.48;19.02;;;;;;;5.08;68.68;100851.02;1705360;83;22106;-69
2021/10/11 03:36:46;;;;;;;35.03;23.77;;;;;;;5.52;68.58;100821.55;1739300;80;27034;-71
2021/10/11 03:52:57;;;;;;;34.85;20.55;;;;;;;6.30;66.11;100826.00;1805199;77;28570;-70
2021/10/11 03:55:24;;;;;;;28.87;20.40;;;;;;;6.31;65.82;100826.31;1807845;77;20964;-71
2021/10/11 03:57:50;;;;;;;29.23;19.55;;;;;;;6.36;65.47;100827.06;1789048;79;21046;-73
2021/10/11 04:00:17;;;;;;;30.62;21.52;;;;;;;6.38;65.14;100823.70;1797227;78;20931;-72
2021/10/11 04:02:44;;;;;;;30.88;20.57;;;;;;;6.33;65.03;100826.93;1785889;79;21043;-70
2021/10/11 04:05:10;;;;;;;32.13;23.38;;;;;;;6.29;64.93;100815.49;1830376;76;20939;-70
2021/10/11 04:07:38;;;;;;;31.60;21.87;;;;;;;6.10;65.02;100815.15;1809506;76;20936;-71
2021/10/11 04:10:07;;;;;;;32.33;20.17;;;;;;;5.96;65.33;100813.39;1797411;78;21045;-73
2021/10/11 04:12:34;;;;;;;27.65;19.85;;;;;;;5.81;65.71;100809.09;1813012;78;20936;-69
2021/10/11 04:15:03;;;;;;;33.70;22.07;;;;;;;5.67;66.13;100810.31;1802581;78;20936;-71
2021/10/11 04:17:31;;;;;;;33.98;22.05;;;;;;;5.55;66.48;100801.68;1805069;76;20903;-72
2021/10/11 04:19:57;;;;;;;33.67;20.82;;;;;;;5.44;66.76;100808.34;1839451;77;20946;-71
2021/10/11 04:22:24;;;;;;;32.95;22.80;;;;;;;5.38;67.07;100810.92;1863409;77;21129;-71
2021/10/11 04:24:50;;;;;;;30.40;21.85;;;;;;;5.03;68.35;100800.09;1857452;76;21494;-73
2021/10/11 04:27:17;;;;;;;39.23;23.35;;;;;;;5.03;68.35;100800.09;1839467;77;20923;-70
2021/10/11 04:29:44;;;;;;;33.08;21.65;;;;;;;4.79;69.21;100805.22;1863251;76;20986;-73
2021/10/11 04:32:10;;;;;;;35.60;22.02;;;;;;;4.79;69.21;100805.22;1844864;76;21009;-70
2021/10/11 04:34:37;;;;;;;30.32;22.45;;;;;;;4.60;70.25;100796.45;1838192;76;21121;-70
2021/10/11 04:37:03;;;;;;;32.28;23.25;;;;;;;4.60;70.25;100796.45;1839046;77;20916;-71
2021/10/11 04:39:30;;;;;;;44.98;24.55;;;;;;;4.55;70.40;100796.17;1822712;77;20979;-70
2021/10/11 04:41:56;;;;;;;47.13;29.55;;;;;;;4.53;70.69;100799.51;1808839;78;20969;-70
2021/10/11 04:44:22;;;;;;;54.48;36.95;;;;;;;4.50;71.08;100788.41;1809131;78;21600;-69
2021/10/11 04:46:48;;;;;;;55.78;35.70;;;;;;;4.45;71.32;100798.27;1837596;76;21061;-71
2021/10/11 04:49:16;;;;;;;54.90;34.88;;;;;;;4.44;71.57;100793.13;1809038;78;21049;-70
2021/10/11 04:51:42;;;;;;;44.98;29.20;;;;;;;4.45;71.70;100797.45;1833379;77;21033;-72
2021/10/11 04:54:09;;;;;;;50.35;33.23;;;;;;;4.49;71.86;100789.41;1826768;78;21456;-72
2021/10/11 04:56:36;;;;;;;45.78;30.37;;;;;;;4.55;71.87;100792.67;1826280;77;20931;-73
2021/10/11 04:59:02;;;;;;;42.75;29.37;;;;;;;4.60;71.81;100795.62;1802202;78;21171;-72
2021/10/11 05:01:30;;;;;;;47.15;29.10;;;;;;;4.63;71.75;100789.41;1825479;78;20961;-70
2021/10/11 05:03:57;;;;;;;50.92;30.15;;;;;;;4.64;71.74;100785.73;1825156;78;20962;-71
2021/10/11 05:06:23;;;;;;;45.60;27.87;;;;;;;4.68;71.74;100788.85;1843369;77;21043;-69
2021/10/11 05:08:52;;;;;;;48.50;30.97;;;;;;;4.69;71.75;100790.02;1851154;77;20964;-72
2021/10/11 05:11:18;;;;;;;40.83;25.75;;;;;;;4.73;71.64;100791.29;1851189;77;21194;-70
2021/10/11 05:13:45;;;;;;;50.23;29.20;;;;;;;4.77;71.57;100793.90;1851265;77;20909;-71
2021/10/11 05:16:14;;;;;;;46.90;28.90;;;;;;;4.77;71.53;100791.73;1821566;77;21504;-72
2021/10/11 05:18:41;;;;;;;39.92;27.02;;;;;;;4.83;71.52;100785.67;1829332;77;21487;-69
2021/10/11 05:21:07;;;;;;;50.50;29.57;;;;;;;4.90;71.38;100783.91;1829362;77;21548;-69
2021/10/11 05:23:34;;;;;;;52.33;29.18;;;;;;;4.96;71.22;100783.67;1851050;77;20932;-70
2021/10/11 05:26:01;;;;;;;46.15;27.02;;;;;;;5.00;71.06;100784.44;1814295;78;20985;-74
2021/10/11 05:28:28;;;;;;;50.60;23.52;;;;;;;5.05;70.97;100783.88;1801895;78;21021;-71
2021/10/11 05:30:54;;;;;;;41.13;25.70;;;;;;;5.08;70.81;100783.02;1802441;78;21510;-72
2021/10/11 05:33:22;;;;;;;51.45;27.70;;;;;;;5.11;70.63;100780.47;1827447;78;21482;-72
2021/10/11 05:35:53;;;;;;;37.48;25.72;;;;;;;5.14;70.49;100782.25;1802668;78;21021;-70
2021/10/11 05:38:20;;;;;;;51.00;26.90;;;;;;;5.19;70.37;100773.69;1802355;78;21043;-70
2021/10/11 05:40:47;;;;;;;47.55;29.82;;;;;;;5.24;70.20;100771.28;1825503;78;20993;-71
2021/10/11 05:43:13;;;;;;;61.20;30.77;;;;;;;5.28;70.03;100776.05;1825254;78;21008;-70
2021/10/11 05:45:40;;;;;;;65.65;30.80;;;;;;;5.33;69.83;100775.98;1825631;78;20937;-71
2021/10/11 05:48:06;;;;;;;76.50;35.60;;;;;;;5.37;69.63;100772.74;1802590;78;22306;-72
2021/10/11 05:50:32;;;;;;;83.17;36.90;;;;;;;5.38;69.49;100770.91;1810391;77;21557;-72
2021/10/11 05:53:00;;;;;;;80.47;35.75;;;;;;;5.41;69.38;100771.88;1834370;77;20955;-71
2021/10/11 05:55:28;;;;;;;98.78;43.05;;;;;;;5.45;69.34;100776.64;1810736;78;20935;-73
2021/10/11 05:57:55;;;;;;;60.73;31.23;;;;;;;5.50;69.18;100768.91;1834739;77;20926;-72
2021/10/11 06:00:21;;;;;;;104.23;45.28;;;;;;;5.58;69.06;100775.44;1810632;78;21052;-71
2021/10/11 06:02:47;;;;;;;110.42;53.80;;;;;;;5.70;68.93;100777.92;1810531;78;21817;-73
2021/10/11 06:05:14;;;;;;;111.65;49.25;;;;;;;5.85;68.70;100781.03;1841712;77;20965;-78
2021/10/11 06:07:40;;;;;;;107.20;50.17;;;;;;;6.09;67.45;100778.77;1838422;78;20922;-71
2021/10/11 06:10:07;;;;;;;103.25;45.00;;;;;;;6.09;67.45;100778.77;1838684;78;21057;-72
2021/10/11 06:12:34;;;;;;;79.72;35.78;;;;;;;6.17;67.13;100777.82;1841632;77;21021;-71
2021/10/11 06:15:01;;;;;;;66.90;32.85;;;;;;;6.31;66.27;100773.39;1848806;77;20924;-71
2021/10/11 06:17:27;;;;;;;65.92;33.13;;;;;;;6.31;66.27;100773.39;1852490;77;21582;-72
2021/10/11 06:19:55;;;;;;;50.95;30.32;;;;;;;6.33;66.09;100777.50;1834263;78;21012;-70
2021/10/11 06:22:21;;;;;;;50.58;28.98;;;;;;;6.38;65.79;100779.62;1840492;76;21120;-72
2021/10/11 06:24:47;;;;;;;64.15;30.55;;;;;;;6.44;65.70;100779.64;1833938;78;21529;-73
2021/10/11 06:27:14;;;;;;;59.70;30.15;;;;;;;6.52;65.60;100780.02;1834144;78;21564;-71
2021/10/11 06:29:40;;;;;;;55.40;26.93;;;;;;;6.59;65.37;100778.19;1810660;78;21071;-68
2021/10/11 06:32:07;;;;;;;41.85;24.90;;;;;;;6.66;65.12;100774.22;1843514;77;20936;-71
2021/10/11 06:34:35;;;;;;;45.90;24.30;;;;;;;6.73;64.97;100782.58;1851106;77;21072;-71
2021/10/11 06:37:01;;;;;;;43.58;23.90;;;;;;;6.79;64.67;100776.95;1834147;78;22233;-71
2021/10/11 06:39:27;;;;;;;49.40;26.33;;;;;;;6.85;64.25;100784.19;1833874;78;20976;-71
2021/10/11 06:41:54;;;;;;;52.38;27.58;;;;;;;6.91;63.97;100786.88;1841123;77;21448;-73
2021/10/11 06:44:20;;;;;;;48.38;27.32;;;;;;;6.99;63.81;100773.86;1816307;78;21017;-70
2021/10/11 06:46:49;;;;;;;53.42;28.12;;;;;;;7.06;63.53;100773.87;1810678;78;21013;-68
2021/10/11 06:49:15;;;;;;;45.90;26.95;;;;;;;7.12;63.40;100769.89;1821771;77;21764;-71
2021/10/11 06:51:42;;;;;;;51.98;28.57;;;;;;;7.19;63.18;100767.25;1840734;76;21046;-69
2021/10/11 06:54:08;;;;;;;53.75;26.75;;;;;;;7.26;62.81;100758.20;1838539;76;20985;-72
2021/10/11 06:56:35;;;;;;;51.10;28.90;;;;;;;7.34;62.57;100752.66;1868129;76;21025;-69
2021/10/11 06:59:01;;;;;;;48.95;29.82;;;;;;;7.41;62.35;100750.00;1841387;76;21034;-69
2021/10/11 07:01:28;;;;;;;40.95;24.32;;;;;;;7.48;62.07;100756.20;1868022;76;21123;-69
2021/10/11 07:03:55;;;;;;;50.08;27.82;;;;;;;7.55;61.90;100757.02;1859162;76;21491;-69
2021/10/11 07:06:23;;;;;;;46.15;28.20;;;;;;;7.61;61.60;100751.37;1836880;76;20926;-69
2021/10/11 07:08:50;;;;;;;51.95;27.62;;;;;;;7.70;61.39;100747.46;1806646;76;21556;-70
2021/10/11 07:11:17;;;;;;;49.13;25.75;;;;;;;7.77;61.06;100742.95;1836618;78;21545;-70
2021/10/11 07:13:43;;;;;;;52.17;28.38;;;;;;;7.85;60.75;100738.72;1836621;77;22089;-69
2021/10/11 07:16:11;;;;;;;46.60;27.07;;;;;;;7.94;60.54;100741.49;1866278;76;21515;-72
2021/10/11 07:18:38;;;;;;;45.55;27.77;;;;;;;8.02;60.20;100736.42;1866895;76;21491;-71
2021/10/11 07:21:06;;;;;;;55.95;27.65;;;;;;;8.09;59.96;100740.77;1836454;78;20989;-72
2021/10/11 07:23:33;;;;;;;48.58;27.95;;;;;;;8.19;59.74;100736.32;1836365;78;21502;-71
2021/10/11 07:26:03;;;;;;;48.05;29.35;;;;;;;8.27;59.63;100730.22;1836247;78;21270;-70
2021/10/11 07:28:30;;;;;;;48.58;30.15;;;;;;;8.37;59.40;100725.80;1825368;78;21573;-71
2021/10/11 07:30:57;;;;;;;66.20;29.02;;;;;;;8.46;59.21;100718.34;1836985;78;20992;-74
2021/10/11 07:33:23;;;;;;;55.95;28.62;;;;;;;8.55;59.09;100716.56;1838388;78;20921;-72
2021/10/11 07:35:50;;;;;;;47.88;28.05;;;;;;;8.65;58.63;100714.25;1836651;78;21042;-71
2021/10/11 07:38:17;;;;;;;48.63;29.05;;;;;;;8.75;58.37;100708.44;1835997;78;21916;-70
2021/10/11 07:40:43;;;;;;;49.23;29.63;;;;;;;8.86;58.07;100707.78;1845764;76;21210;-73
2021/10/11 07:43:09;;;;;;;46.58;27.50;;;;;;;8.97;57.65;100702.27;1850085;76;20950;-73
2021/10/11 07:45:36;;;;;;;52.33;28.70;;;;;;;9.07;57.15;100699.39;1836494;77;20985;-72
2021/10/11 07:48:02;;;;;;;58.35;27.87;;;;;;;9.18;56.83;100701.41;1808567;78;21587;-72
2021/10/11 07:50:29;;;;;;;56.48;27.35;;;;;;;9.31;56.39;100695.63;1837041;76;21112;-71
2021/10/11 07:52:56;;;;;;;45.03;25.35;;;;;;;9.43;55.97;100696.59;1807940;78;21568;-82
2021/10/11 07:55:22;;;;;;;44.95;22.42;;;;;;;9.54;55.51;100689.98;1838204;76;20926;-71
2021/10/11 07:57:48;;;;;;;54.70;23.52;;;;;;;9.67;54.90;100692.28;1836289;78;21049;-71
2021/10/11 08:00:20;;;;;;;37.73;22.05;;;;;;;9.80;54.56;100694.33;1836356;78;20942;-72
2021/10/11 08:02:47;;;;;;;35.60;21.33;;;;;;;9.95;54.20;100692.65;1807884;78;21063;-70
2021/10/11 08:05:14;;;;;;;34.95;21.57;;;;;;;10.08;53.81;100683.11;1810440;78;20973;-70
2021/10/11 08:07:43;;;;;;;38.55;22.87;;;;;;;10.20;53.44;100684.06;1836400;77;20966;-71
2021/10/11 08:10:12;;;;;;;47.33;21.87;;;;;;;10.33;53.12;100691.16;1837022;78;20926;-71
2021/10/11 08:12:38;;;;;;;50.40;21.77;;;;;;;10.46;52.76;100695.03;1837873;77;21170;-72
2021/10/11 08:15:05;;;;;;;47.62;19.60;;;;;;;10.58;52.32;100686.53;1820340;76;21792;-70
2021/10/11 08:17:32;;;;;;;46.15;17.98;;;;;;;10.70;51.91;100690.09;1841135;76;20976;-73
2021/10/11 08:19:59;;;;;;;35.20;19.05;;;;;;;10.82;51.37;100688.30;1818855;77;20917;-70
2021/10/11 08:22:25;;;;;;;42.17;16.80;;;;;;;10.95;51.17;100679.21;1808258;76;21012;-70
2021/10/11 08:24:51;;;;;;;45.17;18.15;;;;;;;11.07;50.57;100679.27;1808623;78;21005;-69
2021/10/11 08:27:18;;;;;;;41.45;19.02;;;;;;;11.19;50.29;100682.28;1808284;78;22159;-71
2021/10/11 08:29:51;;;;;;;60.67;21.10;;;;;;;11.32;49.76;100678.04;1836543;78;20992;-70
2021/10/11 08:32:25;;;;;;;50.10;20.43;;;;;;;11.45;49.41;100674.34;1807904;78;20968;-71
2021/10/11 08:34:52;;;;;;;48.05;21.87;;;;;;;11.58;49.00;100667.91;1836499;78;21034;-72
2021/10/11 08:37:21;;;;;;;48.70;18.32;;;;;;;11.69;48.83;100667.94;1836275;78;21514;-74
2021/10/11 08:39:47;;;;;;;53.52;21.00;;;;;;;11.81;48.66;100670.66;1836114;77;22110;-75
2021/10/11 08:42:15;;;;;;;38.88;18.35;;;;;;;11.90;47.92;100661.16;1808205;78;21522;-71
2021/10/11 08:44:43;;;;;;;58.90;19.45;;;;;;;12.00;47.42;100664.09;1828429;77;20971;-74
2021/10/11 08:47:10;;;;;;;32.23;17.87;;;;;;;12.12;47.20;100667.61;1846309;77;20929;-70
2021/10/11 08:49:43;;;;;;;24.47;17.48;;;;;;;12.20;46.34;100666.42;1810697;78;20879;-70
2021/10/11 08:52:11;;;;;;;32.80;18.10;;;;;;;12.24;46.28;100659.48;1836970;78;21103;-69
2021/10/11 08:54:39;;;;;;;30.82;16.65;;;;;;;12.31;46.37;100658.84;1843312;77;21536;-70
2021/10/11 08:57:05;;;;;;;37.78;16.57;;;;;;;12.36;45.90;100650.86;1829894;77;21037;-71
2021/10/11 08:59:33;;;;;;;38.60;17.48;;;;;;;12.39;44.83;100644.16;1797363;78;20980;-73
2021/10/11 09:02:04;;;;;;;41.88;16.50;;;;;;;12.39;44.64;100638.76;1797069;78;21043;-75
2021/10/11 09:04:32;;;;;;;27.95;17.48;;;;;;;12.41;44.90;100631.27;1822844;78;21728;-73
2021/10/11 09:07:06;;;;;;;29.67;15.75;;;;;;;12.48;45.01;100632.75;1800129;78;21006;-72
2021/10/11 09:09:49;;;;;;;28.15;15.32;;;;;;;12.58;44.83;100637.00;1823975;78;21000;-74
2021/10/11 09:12:30;;;;;;;29.53;15.30;;;;;;;12.71;44.84;100632.41;1800136;78;20981;-74
2021/10/11 09:15:12;;;;;;;25.12;15.70;;;;;;;12.86;44.87;100626.74;1799843;78;20955;-70
2021/10/11 09:17:46;;;;;;;21.23;12.55;;;;;;;13.01;44.30;100623.50;1822355;77;22050;-72
2021/10/11 09:20:18;;;;;;;20.48;13.38;;;;;;;13.17;44.03;100616.53;1811101;78;20950;-75
2021/10/11 09:22:48;;;;;;;24.77;15.88;;;;;;;13.29;43.47;100603.22;1796755;78;20971;-70
2021/10/11 09:25:15;;;;;;;27.62;14.75;;;;;;;13.35;43.35;100598.19;1820578;78;21484;-75
2021/10/11 09:27:51;;;;;;;31.90;18.40;;;;;;;13.42;43.17;100588.05;1821720;78;21427;-71
2021/10/11 09:30:21;;;;;;;40.20;14.83;;;;;;;13.49;43.04;100591.92;1824600;77;22546;-73
2021/10/11 09:32:49;;;;;;;22.22;13.95;;;;;;;13.56;43.11;100591.23;1847338;77;20936;-71
2021/10/11 09:35:18;;;;;;;30.48;17.25;;;;;;;13.63;42.43;100591.04;1825535;77;20912;-72
2021/10/11 09:37:49;;;;;;;30.05;14.93;;;;;;;13.65;42.46;100588.92;1825763;77;20951;-72
2021/10/11 09:40:13;;;;;;;20.77;13.10;;;;;;;13.72;42.60;100583.61;1799488;77;21022;-72
2021/10/11 09:42:39;;;;;;;32.10;15.35;;;;;;;13.83;42.35;100584.05;1845900;77;20964;-76
2021/10/11 09:45:06;;;;;;;21.55;13.08;;;;;;;13.89;42.19;100577.66;1825521;77;20921;-76
2021/10/11 09:47:40;;;;;;;20.55;13.68;;;;;;;14.00;41.83;100571.85;1831249;77;21529;-79
2021/10/11 09:50:11;;;;;;;27.52;11.48;;;;;;;14.13;41.40;100559.83;1799372;78;20943;-80
2021/10/11 09:52:43;;;;;;;23.75;11.10;;;;;;;14.24;40.95;100567.02;1801793;78;21049;-83
2021/10/11 09:55:11;;;;;;;16.50;10.23;;;;;;;14.32;41.01;100561.97;1836327;78;21148;-74
2021/10/11 09:57:38;;;;;;;17.62;11.22;;;;;;;14.40;40.90;100559.36;1835668;78;21663;-74
2021/10/11 10:00:08;;;;;;;25.77;12.63;;;;;;;14.52;40.64;100547.05;1808854;78;21616;-77
2021/10/11 10:02:37;;;;;;;15.18;10.78;;;;;;;14.62;40.67;100547.98;1836634;76;20965;-78
2021/10/11 10:05:08;;;;;;;19.52;11.68;;;;;;;14.73;40.30;100545.64;1836444;78;21024;-76
2021/10/11 10:07:35;;;;;;;16.45;9.90;;;;;;;14.82;40.31;100543.27;1836374;78;20995;-75
2021/10/11 10:10:05;;;;;;;15.10;10.40;;;;;;;14.89;39.71;100547.95;1809418;78;20989;-79
2021/10/11 10:12:33;;;;;;;16.48;8.58;;;;;;;14.92;39.86;100539.31;1808950;78;20969;-72
2021/10/11 10:15:01;;;;;;;12.00;8.63;;;;;;;15.00;39.66;100528.55;1808211;78;20952;-74
2021/10/11 10:17:34;;;;;;;11.38;8.50;;;;;;;15.01;39.31;100535.61;1818180;78;20918;-75
2021/10/11 10:20:11;;;;;;;10.23;8.05;;;;;;;14.98;39.37;100524.73;1848268;76;21496;-72
2021/10/11 10:22:49;;;;;;;14.40;9.55;;;;;;;15.02;39.48;100524.50;1868162;76;20977;-72
2021/10/11 10:25:16;;;;;;;15.10;8.85;;;;;;;15.08;39.47;100528.89;1818936;78;21540;-72
2021/10/11 10:27:42;;;;;;;11.70;7.75;;;;;;;15.18;39.64;100527.62;1800016;79;20904;-73
2021/10/11 10:30:22;;;;;;;12.58;9.33;;;;;;;15.27;38.87;100526.59;1800611;78;20975;-73
2021/10/11 10:33:04;;;;;;;11.80;8.20;;;;;;;15.29;39.11;100514.96;1773224;79;20985;-76
2021/10/11 10:35:36;;;;;;;18.25;8.75;;;;;;;15.33;39.34;100509.30;1800119;79;20876;-74
2021/10/11 10:38:03;;;;;;;23.50;9.60;;;;;;;15.42;39.13;100508.26;1816391;78;21479;-76
2021/10/11 10:40:31;;;;;;;11.22;8.55;;;;;;;15.48;39.30;100497.20;1769625;80;21029;-73
2021/10/11 10:43:07;;;;;;;14.00;9.35;;;;;;;15.60;39.03;100503.78;1773465;79;21412;-72
2021/10/11 10:45:35;;;;;;;14.25;8.93;;;;;;;15.64;38.66;100501.63;1795852;79;21998;-76
2021/10/11 10:48:01;;;;;;;15.10;8.80;;;;;;;15.64;38.78;100501.63;1769245;79;20987;-73
2021/10/11 10:50:28;;;;;;;11.50;9.70;;;;;;;15.67;38.58;100492.17;1770332;79;20996;-76
2021/10/11 10:52:57;;;;;;;18.45;12.23;;;;;;;15.77;38.67;100496.83;1768701;80;21591;-77
2021/10/11 10:55:24;;;;;;;12.53;8.40;;;;;;;15.87;38.71;100503.12;1793283;80;21066;-75
2021/10/11 10:58:03;;;;;;;9.48;7.80;;;;;;;16.03;38.24;100490.41;1799696;79;21200;-75
2021/10/11 11:00:30;;;;;;;13.08;8.63;;;;;;;16.09;38.01;100490.17;1817534;79;20937;-73
2021/10/11 11:02:56;;;;;;;14.78;8.55;;;;;;;16.14;37.95;100485.30;1812195;79;20918;-77
2021/10/11 11:05:25;;;;;;;12.20;7.60;;;;;;;16.23;37.65;100475.55;1813193;79;21132;-77
2021/10/11 11:07:54;;;;;;;11.22;7.85;;;;;;;16.30;37.52;100469.88;1781452;80;21051;-74
2021/10/11 11:10:26;;;;;;;13.35;8.63;;;;;;;16.39;37.23;100466.37;1781357;80;22204;-74
2021/10/11 11:13:00;;;;;;;10.82;7.78;;;;;;;16.47;37.05;100463.65;1793048;79;21016;-73
2021/10/11 11:15:36;;;;;;;12.43;7.55;;;;;;;16.56;36.97;100456.59;1781452;80;20975;-86
2021/10/11 11:18:15;;;;;;;12.73;8.60;;;;;;;16.61;36.96;100459.89;1793349;79;21063;-79
2021/10/11 11:20:43;;;;;;;11.30;8.18;;;;;;;16.65;36.85;100451.47;1782119;80;20975;-83
2021/10/11 11:23:23;;;;;;;8.70;6.80;;;;;;;16.74;36.65;100445.22;1792854;79;21000;-79
2021/10/11 11:25:53;;;;;;;15.70;9.65;;;;;;;16.82;35.95;100441.98;1813636;78;21718;-82
2021/10/11 11:28:22;;;;;;;10.05;6.90;;;;;;;16.82;35.98;100437.09;1781587;80;21499;-78
2021/10/11 11:30:54;;;;;;;9.10;8.18;;;;;;;16.90;35.66;100438.70;1782952;80;20936;-83
2021/10/11 11:33:22;;;;;;;11.50;7.50;;;;;;;16.95;35.61;100428.38;1794159;79;21528;-78
2021/10/11 11:35:52;;;;;;;10.30;7.42;;;;;;;17.05;35.34;100425.64;1793333;80;21109;-75
2021/10/11 11:38:22;;;;;;;11.50;8.33;;;;;;;17.15;35.25;100418.83;1792702;79;21016;-77
2021/10/11 11:40:57;;;;;;;11.00;8.53;;;;;;;17.19;35.06;100422.63;1781455;80;21508;-81
2021/10/11 11:43:24;;;;;;;13.75;8.05;;;;;;;17.20;35.16;100416.09;1793862;79;20984;-78
2021/10/11 11:45:53;;;;;;;10.15;7.35;;;;;;;17.23;35.03;100405.20;1792680;80;21036;-74
2021/10/11 11:48:24;;;;;;;15.93;8.58;;;;;;;17.27;35.10;100404.38;1811427;79;22241;-75